sim
Sign-in with your pilot id or email,
or register
Callsign
Passwort

Schedule Details

Flight Number: EWG1901 (1)
Departure: Catania Fontanarossa Airport (LICC) at 16:20
Arrival: Munich Airport (EDDM) at 18:35
Route: Eurowings Passenger Schedule. Enter filed route here before submitting Pirep.

Weather Information
Getting current METAR information for LICC 242220Z 24004KT CAVOK 21/20 Q1014
Getting current METAR information for EDDM 242220Z 28011KT 250V310 9999 -RA SCT025 BKN045 15/12 Q1004 TEMPO RA

Schedule Frequency

Route Map